Terminal Aerodrome Forecast
Issued by NWS

Home | Current Version | Previous Version | Text Only | Print | Product List | Glossary On
Versions: 1 2 3 4 5 6 7 8 9 10 11 12 13 14
000
FTUS45 KPSR 250500
TAFBLH
TAF
KBLH 250520Z 2506/2606 17005KT P6SM SKC
     FM250800 VRB05KT P6SM FEW100
      TEMPO 2511/2515 34004KT
     FM251500 16007KT P6SM SCT100
     FM252300 22010KT P6SM FEW080 SCT250=

USA.gov is the U.S. government's official web portal to all federal, state and local government web resources and services.